createdAt,value
2022-08-25T00:01:37.816Z,21.70
2022-08-25T00:04:10.927Z,21.70
2022-08-25T00:06:40.042Z,21.60
2022-08-25T00:09:08.484Z,21.70
2022-08-25T00:11:38.165Z,21.60
2022-08-25T00:14:10.162Z,21.60
2022-08-25T00:16:38.455Z,21.60
2022-08-25T00:19:10.298Z,21.60
2022-08-25T00:21:38.029Z,21.60
2022-08-25T00:24:05.708Z,21.50
2022-08-25T00:26:33.141Z,21.60
2022-08-25T00:29:01.141Z,21.50
2022-08-25T00:31:39.072Z,21.50
2022-08-25T00:34:10.480Z,21.50
2022-08-25T00:36:38.158Z,21.50
2022-08-25T00:39:08.089Z,21.50
2022-08-25T00:41:36.423Z,21.50
2022-08-25T00:44:07.581Z,21.50
2022-08-25T00:46:43.095Z,21.50
2022-08-25T00:49:25.267Z,21.50
2022-08-25T00:52:01.285Z,21.50
2022-08-25T00:54:37.336Z,21.50
2022-08-25T00:57:07.156Z,21.50
2022-08-25T00:59:34.879Z,21.40
2022-08-25T01:02:04.372Z,21.50
2022-08-25T01:04:31.874Z,21.40
2022-08-25T01:07:00.894Z,21.40
2022-08-25T01:09:32.554Z,21.40
2022-08-25T01:12:01.329Z,21.40
2022-08-25T01:14:31.508Z,21.40
2022-08-25T01:16:59.498Z,21.40
2022-08-25T01:19:28.825Z,21.40
2022-08-25T01:21:57.061Z,21.50
2022-08-25T01:25:14.160Z,21.50
2022-08-25T01:27:41.652Z,21.50
2022-08-25T01:30:09.424Z,21.50
2022-08-25T01:32:36.862Z,21.50
2022-08-25T01:35:04.612Z,21.50
2022-08-25T01:37:34.827Z,21.50
2022-08-25T01:40:02.383Z,21.50
2022-08-25T01:42:38.917Z,21.50
2022-08-25T01:45:06.928Z,21.40
2022-08-25T01:47:34.633Z,21.30
2022-08-25T01:50:02.125Z,21.10
2022-08-25T01:52:50.164Z,21.10
2022-08-25T01:55:18.121Z,21.00
2022-08-25T01:57:46.381Z,21.00
2022-08-25T02:00:15.870Z,21.00
2022-08-25T02:02:44.004Z,21.00
2022-08-25T02:05:14.087Z,21.00
2022-08-25T02:07:43.388Z,20.90
2022-08-25T02:10:13.749Z,20.90
2022-08-25T02:12:41.234Z,20.90
2022-08-25T02:15:09.893Z,21.00
2022-08-25T02:17:37.523Z,21.00
2022-08-25T02:20:08.761Z,21.00
2022-08-25T02:22:36.137Z,20.80
2022-08-25T02:25:04.132Z,20.60
2022-08-25T02:27:31.477Z,20.40
2022-08-25T02:29:58.921Z,20.30
2022-08-25T02:32:26.359Z,20.20
2022-08-25T02:34:53.903Z,20.20
2022-08-25T02:37:21.405Z,20.10
2022-08-25T02:39:49.023Z,20.10
2022-08-25T02:42:16.437Z,20.00
2022-08-25T02:44:43.794Z,19.90
2022-08-25T02:47:11.204Z,19.90
2022-08-25T02:49:38.671Z,20.00
2022-08-25T02:52:06.225Z,20.00
2022-08-25T02:54:33.798Z,19.90
2022-08-25T02:57:01.284Z,19.80
2022-08-25T02:59:28.795Z,19.80
2022-08-25T03:01:56.486Z,19.80
2022-08-25T03:04:24.005Z,19.80
2022-08-25T03:06:51.386Z,19.70
2022-08-25T03:09:18.880Z,19.70
2022-08-25T03:11:47.395Z,19.70
2022-08-25T03:14:15.438Z,19.70
2022-08-25T03:16:46.500Z,19.60
2022-08-25T03:19:14.804Z,19.60
2022-08-25T03:21:42.333Z,19.50
2022-08-25T03:24:09.694Z,19.40
2022-08-25T03:26:55.875Z,19.40
2022-08-25T03:29:32.677Z,19.40
2022-08-25T03:32:01.227Z,19.40
2022-08-25T03:34:29.866Z,19.30
2022-08-25T03:36:57.751Z,19.30
2022-08-25T03:39:26.484Z,19.30
2022-08-25T03:41:54.253Z,19.30
2022-08-25T03:44:22.151Z,19.20
2022-08-25T03:46:51.929Z,19.30
2022-08-25T03:49:22.907Z,19.30
2022-08-25T03:51:52.123Z,19.30
2022-08-25T03:54:22.954Z,19.20
2022-08-25T03:56:50.381Z,19.30
2022-08-25T03:59:19.059Z,19.20
2022-08-25T04:01:51.395Z,19.20
2022-08-25T04:04:21.706Z,19.30
2022-08-25T04:06:49.083Z,19.30
2022-08-25T04:09:16.608Z,19.30
2022-08-25T04:11:44.067Z,19.20
2022-08-25T04:14:15.748Z,19.20
2022-08-25T04:16:44.950Z,19.20
2022-08-25T04:19:12.744Z,19.20
2022-08-25T04:21:41.002Z,19.20
2022-08-25T04:24:10.093Z,19.20
2022-08-25T04:26:42.424Z,19.10
2022-08-25T04:29:11.901Z,19.00
2022-08-25T04:31:41.563Z,19.00
2022-08-25T04:34:14.342Z,19.00
2022-08-25T04:36:56.725Z,18.90
2022-08-25T04:39:24.223Z,18.90
2022-08-25T04:41:51.798Z,18.90
2022-08-25T04:44:19.295Z,18.80
2022-08-25T04:46:46.798Z,18.80
2022-08-25T04:49:14.228Z,18.70
2022-08-25T04:51:42.759Z,18.70
2022-08-25T04:54:13.329Z,18.70
2022-08-25T04:56:41.556Z,18.80
2022-08-25T04:59:11.711Z,18.80
2022-08-25T05:01:40.527Z,18.80
2022-08-25T05:04:20.408Z,18.80
2022-08-25T05:06:56.951Z,18.80
2022-08-25T05:09:25.389Z,18.80
2022-08-25T05:11:53.825Z,18.80
2022-08-25T05:14:25.541Z,18.90
2022-08-25T05:16:55.813Z,18.90
2022-08-25T05:19:26.824Z,18.80
2022-08-25T05:21:54.635Z,18.80
2022-08-25T05:24:25.880Z,18.80
2022-08-25T05:26:53.612Z,18.70
2022-08-25T05:29:21.212Z,18.80
2022-08-25T05:31:50.869Z,18.80
2022-08-25T05:34:19.725Z,18.70
2022-08-25T05:36:48.378Z,18.80
2022-08-25T05:39:15.874Z,18.80
2022-08-25T05:41:43.432Z,18.80
2022-08-25T05:44:12.720Z,18.80
2022-08-25T05:46:40.136Z,18.70
2022-08-25T05:49:07.582Z,18.70
2022-08-25T05:51:34.992Z,18.70
2022-08-25T05:54:03.536Z,18.70
2022-08-25T05:56:31.378Z,18.70
2022-08-25T05:58:58.805Z,19.00
2022-08-25T06:01:47.802Z,18.90
2022-08-25T06:04:20.304Z,18.80
2022-08-25T06:06:48.781Z,18.70
2022-08-25T06:09:16.272Z,18.70
2022-08-25T06:11:43.782Z,18.70
2022-08-25T06:14:11.529Z,18.70
2022-08-25T06:16:39.670Z,18.70
2022-08-25T06:19:08.788Z,18.70
2022-08-25T06:21:39.092Z,18.70
2022-08-25T06:24:10.976Z,18.60
2022-08-25T06:26:41.156Z,18.60
2022-08-25T06:29:08.594Z,18.60
2022-08-25T06:31:36.129Z,18.60
2022-08-25T06:34:03.635Z,18.50
2022-08-25T06:36:31.070Z,18.50
2022-08-25T06:38:58.480Z,18.50
2022-08-25T06:41:32.116Z,18.40
2022-08-25T06:44:06.520Z,18.40
2022-08-25T06:46:36.251Z,18.40
2022-08-25T06:49:06.189Z,18.40
2022-08-25T06:51:35.671Z,18.50
2022-08-25T06:54:05.290Z,18.50
2022-08-25T06:56:34.096Z,18.40
2022-08-25T06:59:03.890Z,18.40
2022-08-25T07:01:32.483Z,18.30
2022-08-25T07:04:01.964Z,18.30
2022-08-25T07:06:32.942Z,18.40
2022-08-25T07:09:00.306Z,18.40
2022-08-25T07:11:28.800Z,18.40
2022-08-25T07:13:56.237Z,18.50
2022-08-25T07:16:27.978Z,18.50
2022-08-25T07:18:59.076Z,18.40
2022-08-25T07:21:33.162Z,18.30
2022-08-25T07:24:03.423Z,18.30
2022-08-25T07:26:37.813Z,18.40
2022-08-25T07:29:15.468Z,18.40
2022-08-25T07:31:43.265Z,18.40
2022-08-25T07:34:29.500Z,18.40
2022-08-25T07:36:58.047Z,18.40
2022-08-25T07:39:26.515Z,18.40
2022-08-25T07:41:56.677Z,18.50
2022-08-25T07:44:28.180Z,18.50
2022-08-25T07:46:56.045Z,18.50
2022-08-25T07:49:25.188Z,18.50
2022-08-25T07:52:04.452Z,18.50
2022-08-25T07:54:35.242Z,18.50
2022-08-25T07:57:04.553Z,18.50
2022-08-25T07:59:39.440Z,18.50
2022-08-25T08:02:18.677Z,18.50
2022-08-25T08:04:52.032Z,18.50
2022-08-25T08:07:41.983Z,18.50
2022-08-25T08:10:42.376Z,18.40
2022-08-25T08:12:59.392Z,18.30
2022-08-25T08:15:29.817Z,18.30
2022-08-25T08:17:59.176Z,18.40
2022-08-25T08:20:27.394Z,18.50
2022-08-25T08:22:56.076Z,18.40
2022-08-25T08:25:26.598Z,18.40
2022-08-25T08:27:56.204Z,18.40
2022-08-25T08:30:26.206Z,18.30
2022-08-25T08:33:11.657Z,18.30
2022-08-25T08:35:41.396Z,18.40
2022-08-25T08:38:14.721Z,18.40
2022-08-25T08:41:15.543Z,18.40
2022-08-25T08:43:45.423Z,18.40
2022-08-25T08:46:13.678Z,18.40
2022-08-25T08:48:49.343Z,18.40
2022-08-25T08:51:24.654Z,18.40
2022-08-25T08:54:15.532Z,18.40
2022-08-25T08:56:48.807Z,18.40
2022-08-25T08:59:31.335Z,18.40
2022-08-25T09:02:02.775Z,18.30
2022-08-25T09:04:59.220Z,18.30
2022-08-25T09:07:42.304Z,18.20
2022-08-25T09:10:10.959Z,18.20
2022-08-25T09:13:12.621Z,18.20
2022-08-25T09:16:04.243Z,18.20
2022-08-25T09:18:51.515Z,18.40
2022-08-25T09:21:32.334Z,18.40
2022-08-25T09:24:36.252Z,18.40
2022-08-25T09:27:17.863Z,18.40
2022-08-25T09:29:50.766Z,18.30
2022-08-25T09:32:24.062Z,18.30
2022-08-25T09:34:54.995Z,18.30
2022-08-25T09:37:25.165Z,18.40
2022-08-25T09:39:52.656Z,18.40
2022-08-25T09:42:23.914Z,18.30
2022-08-25T09:44:51.762Z,18.30
2022-08-25T09:47:27.511Z,18.40
2022-08-25T09:50:01.342Z,18.40
2022-08-25T09:52:41.283Z,18.50
2022-08-25T09:55:09.514Z,18.40
2022-08-25T09:57:43.627Z,18.40
2022-08-25T10:00:28.792Z,18.40
2022-08-25T10:03:22.731Z,18.30
2022-08-25T10:06:06.639Z,18.40
2022-08-25T10:08:39.633Z,18.40
2022-08-25T10:11:13.127Z,18.40
2022-08-25T10:14:00.660Z,18.50
2022-08-25T10:16:36.221Z,18.50
2022-08-25T10:19:26.791Z,18.50
2022-08-25T10:22:10.943Z,18.50
2022-08-25T10:24:44.057Z,18.50
2022-08-25T10:27:36.985Z,18.50
2022-08-25T10:30:14.711Z,18.60
2022-08-25T10:32:54.066Z,18.60
2022-08-25T10:35:37.845Z,18.60
2022-08-25T10:38:27.197Z,18.60
2022-08-25T10:41:07.228Z,18.60
2022-08-25T10:43:44.242Z,18.60
2022-08-25T10:46:37.176Z,18.60
2022-08-25T10:49:04.645Z,18.60
2022-08-25T10:51:55.623Z,18.60
2022-08-25T10:54:29.139Z,18.50
2022-08-25T10:57:17.309Z,18.50
2022-08-25T10:59:58.339Z,18.50
2022-08-25T11:02:44.125Z,18.50
2022-08-25T11:05:31.476Z,18.50
2022-08-25T11:08:39.048Z,18.50
2022-08-25T11:11:42.772Z,18.50
2022-08-25T11:14:19.041Z,18.60
2022-08-25T11:17:10.136Z,18.70
2022-08-25T11:19:45.516Z,18.80
2022-08-25T11:22:13.579Z,18.80
2022-08-25T11:25:12.187Z,18.70
2022-08-25T11:28:00.383Z,18.60
2022-08-25T11:30:29.013Z,18.70
2022-08-25T11:32:56.935Z,18.80
2022-08-25T11:35:33.109Z,19.00
2022-08-25T11:38:04.879Z,19.00
2022-08-25T11:40:53.332Z,19.00
2022-08-25T11:43:37.039Z,18.90
2022-08-25T11:46:35.092Z,18.80
2022-08-25T11:49:37.873Z,18.90
2022-08-25T11:52:30.724Z,19.00
2022-08-25T11:55:15.163Z,18.90
2022-08-25T11:57:45.546Z,19.10
2022-08-25T12:00:34.872Z,19.20
2022-08-25T12:03:37.131Z,19.20
2022-08-25T12:06:18.692Z,19.10
2022-08-25T12:09:00.620Z,19.20
2022-08-25T12:11:54.652Z,19.10
2022-08-25T12:14:22.054Z,19.20
2022-08-25T12:16:55.676Z,19.30
2022-08-25T12:19:26.605Z,19.50
2022-08-25T12:22:03.650Z,19.60
2022-08-25T12:24:48.154Z,19.70
2022-08-25T12:27:55.697Z,19.80
2022-08-25T12:30:32.553Z,19.80
2022-08-25T12:33:42.696Z,20.00
2022-08-25T12:36:25.661Z,20.10
2022-08-25T12:38:54.535Z,20.40
2022-08-25T12:41:31.078Z,20.70
2022-08-25T12:44:41.881Z,20.70
2022-08-25T12:47:32.443Z,20.60
2022-08-25T12:50:27.740Z,20.90
2022-08-25T12:53:06.866Z,21.40
2022-08-25T12:55:36.155Z,21.40
2022-08-25T12:58:06.056Z,21.50
2022-08-25T13:00:48.240Z,21.40
2022-08-25T13:06:26.661Z,21.60
2022-08-25T13:09:47.075Z,21.80
2022-08-25T13:12:20.094Z,22.10
2022-08-25T13:14:54.259Z,22.10
2022-08-25T13:17:42.317Z,22.10
2022-08-25T13:20:24.523Z,22.40
2022-08-25T13:23:06.511Z,22.70
2022-08-25T13:25:50.129Z,23.30
2022-08-25T13:28:43.506Z,23.20
2022-08-25T13:31:22.433Z,23.50
2022-08-25T13:33:55.625Z,23.70
2022-08-25T13:36:51.057Z,23.30
2022-08-25T13:39:52.720Z,22.90
2022-08-25T13:42:16.938Z,22.50
2022-08-25T13:44:52.012Z,22.00
2022-08-25T13:47:45.444Z,21.70
2022-08-25T13:50:28.411Z,21.50
2022-08-25T13:52:57.439Z,21.50
2022-08-25T13:55:51.149Z,21.40
2022-08-25T13:58:38.990Z,21.40
2022-08-25T14:01:46.292Z,21.30
2022-08-25T14:04:51.515Z,21.40
2022-08-25T14:07:22.970Z,21.40
2022-08-25T14:10:04.386Z,21.40
2022-08-25T14:12:40.609Z,21.30
2022-08-25T14:15:13.307Z,21.10
2022-08-25T14:17:48.009Z,21.00
2022-08-25T14:20:28.970Z,21.00
2022-08-25T14:23:19.457Z,21.00
2022-08-25T14:25:49.048Z,21.00
2022-08-25T14:28:22.807Z,21.10
2022-08-25T14:31:05.249Z,21.00
2022-08-25T14:33:42.351Z,21.00
2022-08-25T14:36:10.386Z,20.90
2022-08-25T14:38:39.071Z,20.90
2022-08-25T14:43:37.232Z,20.80
2022-08-25T14:46:20.249Z,20.80
2022-08-25T14:48:54.565Z,21.00
2022-08-25T14:51:24.947Z,21.50
2022-08-25T14:53:59.297Z,22.00
2022-08-25T14:56:29.296Z,22.20
2022-08-25T14:58:57.414Z,22.20
2022-08-25T15:01:30.107Z,22.20
2022-08-25T15:04:01.212Z,22.00
2022-08-25T15:06:29.375Z,21.80
2022-08-25T15:09:11.456Z,21.70
2022-08-25T15:11:44.764Z,21.50
2022-08-25T15:14:15.744Z,21.40
2022-08-25T15:16:50.979Z,21.30
2022-08-25T15:19:22.724Z,21.30
2022-08-25T15:21:51.549Z,21.30
2022-08-25T15:24:20.335Z,21.30
2022-08-25T15:26:55.727Z,21.30
2022-08-25T15:29:27.334Z,21.20
2022-08-25T15:31:54.953Z,21.20
2022-08-25T15:34:22.610Z,21.20
2022-08-25T15:36:50.344Z,21.20
2022-08-25T15:39:19.163Z,21.20
2022-08-25T15:41:52.508Z,21.10
2022-08-25T15:44:20.298Z,21.00
2022-08-25T15:46:50.233Z,20.90
2022-08-25T15:49:20.737Z,20.80
2022-08-25T15:51:52.694Z,20.80
2022-08-25T15:54:23.780Z,20.70
2022-08-25T15:56:55.400Z,20.60
2022-08-25T15:59:23.394Z,20.50
2022-08-25T16:01:56.254Z,20.40
2022-08-25T16:04:25.459Z,20.30
2022-08-25T16:06:53.634Z,20.20
2022-08-25T16:09:23.729Z,20.20
2022-08-25T16:11:56.842Z,20.20
2022-08-25T16:14:26.345Z,20.10
2022-08-25T16:16:58.349Z,20.10
2022-08-25T16:19:28.627Z,20.00
2022-08-25T16:21:56.661Z,20.00
2022-08-25T16:24:24.620Z,20.00
2022-08-25T16:26:52.307Z,20.00
2022-08-25T16:29:22.839Z,20.00
2022-08-25T16:31:53.226Z,20.00
2022-08-25T16:34:24.639Z,20.00
2022-08-25T16:36:56.165Z,19.90
2022-08-25T16:39:24.246Z,19.90
2022-08-25T16:41:52.672Z,19.90
2022-08-25T16:44:22.477Z,19.80
2022-08-25T16:46:54.380Z,19.70
2022-08-25T16:49:25.457Z,19.70
2022-08-25T16:51:57.048Z,19.60
2022-08-25T16:54:45.715Z,19.50
2022-08-25T16:57:13.458Z,19.50
2022-08-25T16:59:42.562Z,19.50
2022-08-25T17:02:11.688Z,19.40
2022-08-25T17:04:40.713Z,19.40
2022-08-25T17:07:08.298Z,19.30
2022-08-25T17:09:36.368Z,19.40
2022-08-25T17:12:05.100Z,19.30
2022-08-25T17:14:33.070Z,19.30
2022-08-25T17:17:00.841Z,19.20
2022-08-25T17:19:28.403Z,19.10
2022-08-25T17:21:55.894Z,19.10
2022-08-25T17:24:29.415Z,19.10
2022-08-25T17:26:57.866Z,19.10
2022-08-25T17:29:26.054Z,19.10
2022-08-25T17:31:53.897Z,19.00
2022-08-25T17:34:22.979Z,19.00
2022-08-25T17:36:51.458Z,19.00
2022-08-25T17:39:19.893Z,19.00
2022-08-25T17:41:50.609Z,18.90
2022-08-25T17:44:18.765Z,18.80
2022-08-25T17:46:47.973Z,18.80
2022-08-25T17:49:17.149Z,18.70
2022-08-25T17:51:45.232Z,18.70
2022-08-25T17:54:13.624Z,18.70
2022-08-25T17:56:41.423Z,18.70
2022-08-25T17:59:09.583Z,18.70
2022-08-25T18:01:40.643Z,18.60
2022-08-25T18:04:16.930Z,18.60
2022-08-25T18:06:46.474Z,18.60
2022-08-25T18:09:14.764Z,18.70
2022-08-25T18:11:42.656Z,18.70
2022-08-25T18:14:11.398Z,18.60
2022-08-25T18:16:39.519Z,18.70
2022-08-25T18:19:09.771Z,18.60
2022-08-25T18:21:37.891Z,18.50
2022-08-25T18:24:06.763Z,18.50
2022-08-25T18:26:34.315Z,18.50
2022-08-25T18:29:01.844Z,18.50
2022-08-25T18:31:29.346Z,18.50
2022-08-25T18:33:57.898Z,18.50
2022-08-25T18:36:25.436Z,18.50
2022-08-25T18:39:13.510Z,18.50
2022-08-25T18:41:42.496Z,18.40
2022-08-25T18:44:10.947Z,18.40
2022-08-25T18:46:39.974Z,18.30
2022-08-25T18:49:08.463Z,18.30
2022-08-25T18:51:36.680Z,18.20
2022-08-25T18:54:05.001Z,18.20
2022-08-25T18:56:34.071Z,18.20
2022-08-25T18:59:01.874Z,18.20
2022-08-25T19:01:29.605Z,18.20
2022-08-25T19:03:57.323Z,18.20
2022-08-25T19:06:24.779Z,18.20
2022-08-25T19:08:53.082Z,18.20
2022-08-25T19:11:22.314Z,18.20
2022-08-25T19:13:51.384Z,18.20
2022-08-25T19:16:38.607Z,18.20
2022-08-25T19:19:08.652Z,18.20
2022-08-25T19:21:36.446Z,18.20
2022-08-25T19:24:04.383Z,18.10
2022-08-25T19:26:34.381Z,18.20
2022-08-25T19:29:05.053Z,18.10
2022-08-25T19:31:39.189Z,18.10
2022-08-25T19:34:10.264Z,18.10
2022-08-25T19:36:37.821Z,18.00
2022-08-25T19:39:07.863Z,18.10
2022-08-25T19:41:36.075Z,18.10
2022-08-25T19:44:04.703Z,18.00
2022-08-25T19:46:36.093Z,18.00
2022-08-25T19:49:11.301Z,17.90
2022-08-25T19:51:44.349Z,17.90
2022-08-25T19:54:14.621Z,17.80
2022-08-25T19:56:54.321Z,17.80
2022-08-25T19:59:26.768Z,17.80
2022-08-25T20:02:10.058Z,17.80
2022-08-25T20:04:38.324Z,17.70
2022-08-25T20:07:07.441Z,17.70
2022-08-25T20:09:40.973Z,17.70
2022-08-25T20:12:10.569Z,17.70
2022-08-25T20:14:38.617Z,17.70
2022-08-25T20:17:24.057Z,17.70
2022-08-25T20:19:59.341Z,17.60
2022-08-25T20:22:28.828Z,17.60
2022-08-25T20:24:58.649Z,17.60
2022-08-25T20:27:33.083Z,17.60
2022-08-25T20:30:02.747Z,17.50
2022-08-25T20:32:32.619Z,17.50
2022-08-25T20:35:01.777Z,17.50
2022-08-25T20:37:29.616Z,17.50
2022-08-25T20:39:57.326Z,17.50
2022-08-25T20:42:25.151Z,17.50
2022-08-25T20:44:54.672Z,17.40
2022-08-25T20:47:22.635Z,17.40
2022-08-25T20:49:50.487Z,17.40
2022-08-25T20:52:19.669Z,17.40
2022-08-25T20:54:50.335Z,17.40
2022-08-25T20:57:24.488Z,17.30
2022-08-25T20:59:54.804Z,17.30
2022-08-25T21:02:23.944Z,17.30
2022-08-25T21:04:52.402Z,17.30
2022-08-25T21:07:21.391Z,17.20
2022-08-25T21:09:51.852Z,17.30
2022-08-25T21:12:20.405Z,17.20
2022-08-25T21:14:48.988Z,17.20
2022-08-25T21:17:19.091Z,17.20
2022-08-25T21:22:16.393Z,17.10
2022-08-25T21:24:44.989Z,17.20
2022-08-25T21:27:12.488Z,17.10
2022-08-25T21:29:44.666Z,17.20
2022-08-25T21:32:21.242Z,17.10
2022-08-25T21:34:52.921Z,17.10
2022-08-25T21:37:21.482Z,17.10
2022-08-25T21:39:49.204Z,17.10
2022-08-25T21:42:16.918Z,17.10
2022-08-25T21:44:44.319Z,17.10
2022-08-25T21:47:11.945Z,17.10
2022-08-25T21:49:39.490Z,17.10
2022-08-25T21:52:06.939Z,17.00
2022-08-25T21:54:34.395Z,17.00
2022-08-25T21:57:04.221Z,17.00
2022-08-25T21:59:36.705Z,17.00
2022-08-25T22:02:10.280Z,17.00
2022-08-25T22:04:39.394Z,16.90
2022-08-25T22:07:08.411Z,16.90
2022-08-25T22:09:36.741Z,16.90
2022-08-25T22:12:05.711Z,16.80
2022-08-25T22:14:34.116Z,16.80
2022-08-25T22:17:02.039Z,16.80
2022-08-25T22:19:29.464Z,16.80
2022-08-25T22:21:57.494Z,16.80
2022-08-25T22:24:28.147Z,16.70
2022-08-25T22:26:57.076Z,16.70
2022-08-25T22:29:26.206Z,16.70
2022-08-25T22:32:00.031Z,16.70
2022-08-25T22:34:34.333Z,16.70
2022-08-25T22:37:04.015Z,16.70
2022-08-25T22:39:34.091Z,16.70
2022-08-25T22:42:03.296Z,16.60
2022-08-25T22:44:31.415Z,16.60
2022-08-25T22:46:58.826Z,16.80
2022-08-25T22:49:29.046Z,16.80
2022-08-25T22:51:56.578Z,16.70
2022-08-25T22:54:25.445Z,16.70
2022-08-25T22:56:53.356Z,16.70
2022-08-25T22:59:22.130Z,16.60
2022-08-25T23:01:52.665Z,16.60
2022-08-25T23:04:22.391Z,16.60
2022-08-25T23:06:50.552Z,16.50
2022-08-25T23:09:18.067Z,16.50
2022-08-25T23:11:45.698Z,16.50
2022-08-25T23:14:13.576Z,16.50
2022-08-25T23:16:42.795Z,16.40
2022-08-25T23:19:13.956Z,16.40
2022-08-25T23:22:02.071Z,16.40
2022-08-25T23:24:30.938Z,16.40
2022-08-25T23:27:01.282Z,16.30
2022-08-25T23:29:30.019Z,16.30
2022-08-25T23:31:58.200Z,16.30
2022-08-25T23:34:26.659Z,16.30
2022-08-25T23:36:56.688Z,16.30
2022-08-25T23:39:24.824Z,16.30
2022-08-25T23:41:52.858Z,16.30
2022-08-25T23:44:22.065Z,16.30
2022-08-25T23:46:50.207Z,16.30
2022-08-25T23:49:20.394Z,16.30
2022-08-25T23:51:50.291Z,16.30
2022-08-25T23:54:21.179Z,16.30
2022-08-25T23:56:51.591Z,16.30
2022-08-25T23:59:24.262Z,16.30
